Terminal Aerodrome Forecast
Issued by NWS

Home | Current Version | Previous Version | Text Only | Print | Product List | Glossary On
Versions: 1 2 3 4 5 6 7 8 9 10 11 12 13 14 15
000
FTUS45 KGGW 280902 AAA
TAFSDY
TAF AMD
KSDY 280902Z 2809/2906 VRB05KT P6SM SCT004 BKN080
      TEMPO 2809/2812 4SM BR BKN004
     FM281200 04004KT P6SM BKN008
     FM281500 11005KT P6SM VCSH BKN030
     FM290000 30008KT P6SM SCT150
      AMD LTD TO CLD VIS AND WIND=

USA.gov is the U.S. government's official web portal to all federal, state and local government web resources and services.